sensor_id;sensor_type;location;lat;lon;timestamp;pressure;altitude;pressure_sealevel;temperature;humidity
49397;BME280;35615;41.410;2.194;2023-02-28T00:02:15;101016.97;;;11.21;33.73
49397;BME280;35615;41.410;2.194;2023-02-28T00:04:57;101018.41;;;11.35;35.76
49397;BME280;35615;41.410;2.194;2023-02-28T00:07:51;101023.94;;;11.44;37.62
49397;BME280;35615;41.410;2.194;2023-02-28T00:10:28;101024.22;;;11.52;35.70
49397;BME280;35615;41.410;2.194;2023-02-28T00:13:07;101020.47;;;11.44;36.32
49397;BME280;35615;41.410;2.194;2023-02-28T00:15:40;101025.41;;;11.60;37.08
49397;BME280;35615;41.410;2.194;2023-02-28T00:18:10;101021.00;;;11.57;36.09
49397;BME280;35615;41.410;2.194;2023-02-28T00:20:43;101018.03;;;11.48;36.17
49397;BME280;35615;41.410;2.194;2023-02-28T00:23:13;101006.63;;;11.21;36.91
49397;BME280;35615;41.410;2.194;2023-02-28T00:25:50;101000.69;;;11.23;37.48
49397;BME280;35615;41.410;2.194;2023-02-28T00:28:25;100999.28;;;11.09;37.21
49397;BME280;35615;41.410;2.194;2023-02-28T00:31:07;100995.72;;;11.07;38.71
49397;BME280;35615;41.410;2.194;2023-02-28T00:33:35;100991.00;;;10.97;37.86
49397;BME280;35615;41.410;2.194;2023-02-28T00:36:14;100979.88;;;10.98;39.05
49397;BME280;35615;41.410;2.194;2023-02-28T00:38:41;100988.34;;;10.95;40.15
49397;BME280;35615;41.410;2.194;2023-02-28T00:41:20;100982.31;;;10.95;40.57
49397;BME280;35615;41.410;2.194;2023-02-28T00:43:50;100973.13;;;10.81;39.89
49397;BME280;35615;41.410;2.194;2023-02-28T00:46:23;100965.75;;;10.90;39.40
49397;BME280;35615;41.410;2.194;2023-02-28T00:49:10;100947.16;;;10.77;40.03
49397;BME280;35615;41.410;2.194;2023-02-28T00:51:47;100944.75;;;10.61;40.56
49397;BME280;35615;41.410;2.194;2023-02-28T00:54:39;100927.31;;;10.76;41.12
49397;BME280;35615;41.410;2.194;2023-02-28T00:57:17;100932.78;;;10.84;40.48
49397;BME280;35615;41.410;2.194;2023-02-28T00:59:47;100933.47;;;10.80;39.39
49397;BME280;35615;41.410;2.194;2023-02-28T01:02:15;100947.78;;;10.72;38.99
49397;BME280;35615;41.410;2.194;2023-02-28T01:04:45;100937.78;;;10.59;38.13
49397;BME280;35615;41.410;2.194;2023-02-28T01:07:13;100942.84;;;10.56;38.26
49397;BME280;35615;41.410;2.194;2023-02-28T01:09:41;100933.66;;;10.64;38.17
49397;BME280;35615;41.410;2.194;2023-02-28T01:12:15;100924.59;;;10.73;37.20
49397;BME280;35615;41.410;2.194;2023-02-28T01:14:46;100930.38;;;10.89;36.95
49397;BME280;35615;41.410;2.194;2023-02-28T01:17:16;100930.47;;;10.69;36.83
49397;BME280;35615;41.410;2.194;2023-02-28T01:19:43;100930.25;;;10.42;36.88
49397;BME280;35615;41.410;2.194;2023-02-28T01:22:13;100934.50;;;10.63;37.67
49397;BME280;35615;41.410;2.194;2023-02-28T01:24:47;100934.00;;;10.51;37.22
49397;BME280;35615;41.410;2.194;2023-02-28T01:27:14;100938.28;;;10.50;37.44
49397;BME280;35615;41.410;2.194;2023-02-28T01:29:44;100937.22;;;10.45;36.98
49397;BME280;35615;41.410;2.194;2023-02-28T01:32:15;100937.66;;;10.15;37.08
49397;BME280;35615;41.410;2.194;2023-02-28T01:34:45;100942.59;;;10.30;36.68
49397;BME280;35615;41.410;2.194;2023-02-28T01:37:15;100952.31;;;10.36;36.64
49397;BME280;35615;41.410;2.194;2023-02-28T01:39:54;100948.28;;;10.22;36.37
49397;BME280;35615;41.410;2.194;2023-02-28T01:42:31;100941.66;;;10.28;35.74
49397;BME280;35615;41.410;2.194;2023-02-28T01:45:29;100953.09;;;10.14;35.59
49397;BME280;35615;41.410;2.194;2023-02-28T01:48:05;100946.78;;;10.27;34.93
49397;BME280;35615;41.410;2.194;2023-02-28T01:50:43;100938.13;;;10.26;34.73
49397;BME280;35615;41.410;2.194;2023-02-28T01:53:21;100944.88;;;10.23;35.18
49397;BME280;35615;41.410;2.194;2023-02-28T01:56:13;100941.34;;;10.21;34.98
49397;BME280;35615;41.410;2.194;2023-02-28T02:02:32;100939.91;;;10.27;34.71
49397;BME280;35615;41.410;2.194;2023-02-28T02:08:23;100933.56;;;10.40;34.61
49397;BME280;35615;41.410;2.194;2023-02-28T02:11:00;100940.91;;;10.52;35.28
49397;BME280;35615;41.410;2.194;2023-02-28T02:21:00;100928.66;;;10.46;34.51
49397;BME280;35615;41.410;2.194;2023-02-28T02:33:09;100942.31;;;10.43;34.64
49397;BME280;35615;41.410;2.194;2023-02-28T02:39:04;100949.13;;;10.62;34.47
49397;BME280;35615;41.410;2.194;2023-02-28T02:41:53;100923.72;;;10.73;35.14
49397;BME280;35615;41.410;2.194;2023-02-28T02:45:07;100923.09;;;10.79;34.08
49397;BME280;35615;41.410;2.194;2023-02-28T02:47:51;100924.44;;;10.91;35.11
49397;BME280;35615;41.410;2.194;2023-02-28T02:51:04;100917.31;;;10.86;34.29
49397;BME280;35615;41.410;2.194;2023-02-28T02:53:47;100935.84;;;10.96;34.08
49397;BME280;35615;41.410;2.194;2023-02-28T02:56:35;100925.50;;;10.96;33.63
49397;BME280;35615;41.410;2.194;2023-02-28T03:02:31;100902.38;;;11.22;34.54
49397;BME280;35615;41.410;2.194;2023-02-28T03:05:28;100932.22;;;11.14;34.63
49397;BME280;35615;41.410;2.194;2023-02-28T03:08:05;100927.03;;;10.91;34.03
49397;BME280;35615;41.410;2.194;2023-02-28T03:10:41;100928.09;;;10.96;33.78
49397;BME280;35615;41.410;2.194;2023-02-28T03:15:55;100924.47;;;11.14;34.05
49397;BME280;35615;41.410;2.194;2023-02-28T03:24:11;100941.56;;;11.32;34.29
49397;BME280;35615;41.410;2.194;2023-02-28T03:27:37;100950.69;;;11.45;34.00
49397;BME280;35615;41.410;2.194;2023-02-28T03:30:10;100948.03;;;11.44;34.48
49397;BME280;35615;41.410;2.194;2023-02-28T03:35:51;100950.06;;;11.30;33.93
49397;BME280;35615;41.410;2.194;2023-02-28T03:38:43;100941.16;;;11.44;33.93
49397;BME280;35615;41.410;2.194;2023-02-28T03:41:24;100953.25;;;11.45;34.15
49397;BME280;35615;41.410;2.194;2023-02-28T03:44:08;100964.84;;;11.32;33.75
49397;BME280;35615;41.410;2.194;2023-02-28T03:46:43;100953.00;;;11.39;33.97
49397;BME280;35615;41.410;2.194;2023-02-28T03:49:20;100957.19;;;11.35;33.99
49397;BME280;35615;41.410;2.194;2023-02-28T03:51:54;100962.72;;;11.45;33.65
49397;BME280;35615;41.410;2.194;2023-02-28T03:54:40;100965.81;;;11.58;34.68
49397;BME280;35615;41.410;2.194;2023-02-28T03:57:28;100963.59;;;11.45;33.79
49397;BME280;35615;41.410;2.194;2023-02-28T04:00:14;100962.72;;;11.45;33.83
49397;BME280;35615;41.410;2.194;2023-02-28T04:02:46;100965.28;;;11.00;33.55
49397;BME280;35615;41.410;2.194;2023-02-28T04:05:21;100962.88;;;11.04;33.49
49397;BME280;35615;41.410;2.194;2023-02-28T04:07:48;100957.91;;;11.09;33.28
49397;BME280;35615;41.410;2.194;2023-02-28T04:10:21;100965.25;;;10.98;33.71
49397;BME280;35615;41.410;2.194;2023-02-28T04:12:52;100978.06;;;10.97;33.27
49397;BME280;35615;41.410;2.194;2023-02-28T04:15:24;100973.84;;;10.76;33.54
49397;BME280;35615;41.410;2.194;2023-02-28T04:17:54;100972.94;;;10.55;33.59
49397;BME280;35615;41.410;2.194;2023-02-28T04:20:23;100984.31;;;10.39;33.77
49397;BME280;35615;41.410;2.194;2023-02-28T04:22:54;100992.91;;;10.59;34.09
49397;BME280;35615;41.410;2.194;2023-02-28T04:25:26;100983.22;;;10.54;33.80
49397;BME280;35615;41.410;2.194;2023-02-28T04:28:07;100990.78;;;10.70;33.98
49397;BME280;35615;41.410;2.194;2023-02-28T04:30:41;100996.00;;;10.71;34.37
49397;BME280;35615;41.410;2.194;2023-02-28T04:33:08;101005.66;;;10.75;34.27
49397;BME280;35615;41.410;2.194;2023-02-28T04:35:37;101011.19;;;10.85;34.32
49397;BME280;35615;41.410;2.194;2023-02-28T04:38:07;101011.38;;;10.68;33.76
49397;BME280;35615;41.410;2.194;2023-02-28T04:40:36;101012.31;;;10.70;33.86
49397;BME280;35615;41.410;2.194;2023-02-28T04:43:06;101021.28;;;10.79;33.62
49397;BME280;35615;41.410;2.194;2023-02-28T04:45:42;101008.88;;;10.70;34.04
49397;BME280;35615;41.410;2.194;2023-02-28T04:48:18;101015.72;;;10.69;34.30
49397;BME280;35615;41.410;2.194;2023-02-28T04:51:00;101021.69;;;10.47;33.88
49397;BME280;35615;41.410;2.194;2023-02-28T04:53:35;101037.38;;;10.52;34.08
49397;BME280;35615;41.410;2.194;2023-02-28T04:56:06;101028.59;;;10.68;34.35
49397;BME280;35615;41.410;2.194;2023-02-28T04:58:39;101030.47;;;10.72;34.17
49397;BME280;35615;41.410;2.194;2023-02-28T05:01:33;101026.63;;;10.62;34.17
49397;BME280;35615;41.410;2.194;2023-02-28T05:04:04;101032.81;;;10.66;33.95
49397;BME280;35615;41.410;2.194;2023-02-28T05:06:34;101038.88;;;10.66;34.39
49397;BME280;35615;41.410;2.194;2023-02-28T05:09:01;101030.78;;;10.59;34.10
49397;BME280;35615;41.410;2.194;2023-02-28T05:11:34;101036.66;;;10.55;34.16
49397;BME280;35615;41.410;2.194;2023-02-28T05:14:06;101034.31;;;10.61;34.14
49397;BME280;35615;41.410;2.194;2023-02-28T05:16:42;101031.94;;;10.65;33.64
49397;BME280;35615;41.410;2.194;2023-02-28T05:19:15;101037.88;;;10.43;33.57
49397;BME280;35615;41.410;2.194;2023-02-28T05:22:03;101048.59;;;10.53;34.62
49397;BME280;35615;41.410;2.194;2023-02-28T05:24:44;101055.38;;;10.70;34.12
49397;BME280;35615;41.410;2.194;2023-02-28T05:27:22;101062.38;;;10.72;34.21
49397;BME280;35615;41.410;2.194;2023-02-28T05:30:06;101063.41;;;10.76;33.79
49397;BME280;35615;41.410;2.194;2023-02-28T05:32:41;101056.78;;;10.63;34.02
49397;BME280;35615;41.410;2.194;2023-02-28T05:35:14;101065.53;;;10.65;33.81
49397;BME280;35615;41.410;2.194;2023-02-28T05:38:01;101064.75;;;10.68;33.46
49397;BME280;35615;41.410;2.194;2023-02-28T05:40:36;101083.09;;;10.53;34.18
49397;BME280;35615;41.410;2.194;2023-02-28T05:43:13;101071.84;;;10.53;34.06
49397;BME280;35615;41.410;2.194;2023-02-28T05:45:59;101061.31;;;10.48;33.96
49397;BME280;35615;41.410;2.194;2023-02-28T05:48:34;101067.84;;;10.40;34.21
49397;BME280;35615;41.410;2.194;2023-02-28T05:51:07;101075.28;;;10.32;34.12
49397;BME280;35615;41.410;2.194;2023-02-28T05:53:38;101079.94;;;10.41;34.86
49397;BME280;35615;41.410;2.194;2023-02-28T05:56:08;101073.06;;;10.41;34.19
49397;BME280;35615;41.410;2.194;2023-02-28T05:58:45;101080.41;;;10.52;34.05
49397;BME280;35615;41.410;2.194;2023-02-28T06:01:35;101089.19;;;10.36;33.82
49397;BME280;35615;41.410;2.194;2023-02-28T06:04:10;101080.44;;;10.32;34.17
49397;BME280;35615;41.410;2.194;2023-02-28T06:07:02;101082.31;;;10.56;34.36
49397;BME280;35615;41.410;2.194;2023-02-28T06:09:35;101087.56;;;10.57;34.45
49397;BME280;35615;41.410;2.194;2023-02-28T06:12:06;101071.22;;;10.58;33.86
49397;BME280;35615;41.410;2.194;2023-02-28T06:14:42;101090.97;;;10.56;33.94
49397;BME280;35615;41.410;2.194;2023-02-28T06:17:25;101085.84;;;10.58;33.75
49397;BME280;35615;41.410;2.194;2023-02-28T06:20:00;101088.91;;;10.49;33.93
49397;BME280;35615;41.410;2.194;2023-02-28T06:22:34;101082.16;;;10.53;33.45
49397;BME280;35615;41.410;2.194;2023-02-28T06:25:20;101083.28;;;10.38;33.31
49397;BME280;35615;41.410;2.194;2023-02-28T06:27:51;101078.47;;;10.46;33.54
49397;BME280;35615;41.410;2.194;2023-02-28T06:30:34;101086.50;;;10.33;34.03
49397;BME280;35615;41.410;2.194;2023-02-28T06:33:17;101089.31;;;10.39;33.80
49397;BME280;35615;41.410;2.194;2023-02-28T06:36:06;101081.34;;;10.15;34.32
49397;BME280;35615;41.410;2.194;2023-02-28T06:41:14;101095.59;;;10.44;34.98
49397;BME280;35615;41.410;2.194;2023-02-28T06:43:44;101098.91;;;10.41;34.17
49397;BME280;35615;41.410;2.194;2023-02-28T06:46:25;101100.19;;;10.51;34.08
49397;BME280;35615;41.410;2.194;2023-02-28T06:49:02;101117.38;;;10.51;34.58
49397;BME280;35615;41.410;2.194;2023-02-28T06:51:32;101108.41;;;10.62;34.18
49397;BME280;35615;41.410;2.194;2023-02-28T06:54:03;101094.44;;;10.37;33.67
49397;BME280;35615;41.410;2.194;2023-02-28T06:56:46;101099.06;;;10.44;33.37
49397;BME280;35615;41.410;2.194;2023-02-28T06:59:20;101087.03;;;10.26;34.09
49397;BME280;35615;41.410;2.194;2023-02-28T07:01:52;101100.81;;;10.26;33.58
49397;BME280;35615;41.410;2.194;2023-02-28T07:04:48;101096.94;;;10.36;33.69
49397;BME280;35615;41.410;2.194;2023-02-28T07:07:30;101099.53;;;10.36;33.78
49397;BME280;35615;41.410;2.194;2023-02-28T07:10:14;101123.09;;;10.24;34.01
49397;BME280;35615;41.410;2.194;2023-02-28T07:12:57;101125.63;;;10.05;34.19
49397;BME280;35615;41.410;2.194;2023-02-28T07:15:35;101130.31;;;10.31;33.77
49397;BME280;35615;41.410;2.194;2023-02-28T07:18:07;101116.94;;;10.03;34.15
49397;BME280;35615;41.410;2.194;2023-02-28T07:20:35;101126.44;;;10.41;33.74
49397;BME280;35615;41.410;2.194;2023-02-28T07:23:03;101119.69;;;10.07;33.68
49397;BME280;35615;41.410;2.194;2023-02-28T07:25:33;101126.16;;;10.35;33.92
49397;BME280;35615;41.410;2.194;2023-02-28T07:28:01;101134.66;;;10.32;33.86
49397;BME280;35615;41.410;2.194;2023-02-28T07:30:33;101129.28;;;10.47;33.53
49397;BME280;35615;41.410;2.194;2023-02-28T07:33:07;101136.06;;;10.26;34.12
49397;BME280;35615;41.410;2.194;2023-02-28T07:35:34;101141.47;;;10.12;33.65
49397;BME280;35615;41.410;2.194;2023-02-28T07:38:02;101151.50;;;10.06;34.25
49397;BME280;35615;41.410;2.194;2023-02-28T07:40:30;101166.16;;;10.07;34.22
49397;BME280;35615;41.410;2.194;2023-02-28T07:43:05;101163.25;;;10.00;33.90
49397;BME280;35615;41.410;2.194;2023-02-28T07:45:36;101176.50;;;10.07;34.08
49397;BME280;35615;41.410;2.194;2023-02-28T07:48:03;101191.47;;;9.97;33.90
49397;BME280;35615;41.410;2.194;2023-02-28T07:50:31;101182.63;;;10.27;34.21
49397;BME280;35615;41.410;2.194;2023-02-28T07:52:59;101179.97;;;10.26;33.99
49397;BME280;35615;41.410;2.194;2023-02-28T07:55:32;101189.94;;;10.00;34.26
49397;BME280;35615;41.410;2.194;2023-02-28T07:58:03;101194.13;;;10.16;34.49
49397;BME280;35615;41.410;2.194;2023-02-28T08:00:33;101215.31;;;10.27;36.17
49397;BME280;35615;41.410;2.194;2023-02-28T08:03:07;101223.41;;;10.16;36.67
49397;BME280;35615;41.410;2.194;2023-02-28T08:05:41;101230.44;;;10.01;39.56
49397;BME280;35615;41.410;2.194;2023-02-28T08:08:11;101228.72;;;9.84;39.28
49397;BME280;35615;41.410;2.194;2023-02-28T08:10:39;101231.00;;;9.96;39.68
49397;BME280;35615;41.410;2.194;2023-02-28T08:13:07;101234.63;;;9.81;40.14
49397;BME280;35615;41.410;2.194;2023-02-28T08:15:37;101243.59;;;9.72;40.52
49397;BME280;35615;41.410;2.194;2023-02-28T08:18:05;101245.69;;;9.79;40.58
49397;BME280;35615;41.410;2.194;2023-02-28T08:20:33;101226.59;;;9.93;40.31
49397;BME280;35615;41.410;2.194;2023-02-28T08:23:00;101234.03;;;10.05;41.86
49397;BME280;35615;41.410;2.194;2023-02-28T08:25:27;101248.66;;;9.52;41.29
49397;BME280;35615;41.410;2.194;2023-02-28T08:27:55;101238.53;;;9.91;40.63
49397;BME280;35615;41.410;2.194;2023-02-28T08:30:29;101236.47;;;10.02;40.25
49397;BME280;35615;41.410;2.194;2023-02-28T08:32:56;101242.94;;;9.94;40.61
49397;BME280;35615;41.410;2.194;2023-02-28T08:35:36;101242.38;;;9.99;39.79
49397;BME280;35615;41.410;2.194;2023-02-28T08:38:10;101239.91;;;9.84;39.00
49397;BME280;35615;41.410;2.194;2023-02-28T08:40:41;101240.72;;;10.19;38.91
49397;BME280;35615;41.410;2.194;2023-02-28T08:43:12;101248.56;;;10.03;38.67
49397;BME280;35615;41.410;2.194;2023-02-28T08:45:52;101256.63;;;10.27;38.34
49397;BME280;35615;41.410;2.194;2023-02-28T08:48:55;101262.66;;;10.27;37.69
49397;BME280;35615;41.410;2.194;2023-02-28T08:51:30;101262.94;;;10.51;37.42
49397;BME280;35615;41.410;2.194;2023-02-28T08:54:23;101258.44;;;10.47;37.08
49397;BME280;35615;41.410;2.194;2023-02-28T08:57:29;101269.47;;;10.62;37.73
49397;BME280;35615;41.410;2.194;2023-02-28T09:00:02;101266.06;;;10.63;36.78
49397;BME280;35615;41.410;2.194;2023-02-28T09:02:47;101269.50;;;10.82;36.37
49397;BME280;35615;41.410;2.194;2023-02-28T09:05:22;101280.97;;;10.87;36.38
49397;BME280;35615;41.410;2.194;2023-02-28T09:08:17;101287.34;;;10.95;35.85
49397;BME280;35615;41.410;2.194;2023-02-28T09:11:32;101283.47;;;11.04;36.68
49397;BME280;35615;41.410;2.194;2023-02-28T09:14:05;101283.75;;;11.11;35.74
49397;BME280;35615;41.410;2.194;2023-02-28T09:16:49;101290.28;;;11.02;36.30
49397;BME280;35615;41.410;2.194;2023-02-28T09:19:27;101297.00;;;11.18;36.07
49397;BME280;35615;41.410;2.194;2023-02-28T09:22:01;101295.22;;;11.17;36.03
49397;BME280;35615;41.410;2.194;2023-02-28T09:24:39;101312.94;;;10.71;35.25
49397;BME280;35615;41.410;2.194;2023-02-28T09:27:14;101315.59;;;11.10;35.55
49397;BME280;35615;41.410;2.194;2023-02-28T09:29:41;101309.03;;;11.18;35.30
49397;BME280;35615;41.410;2.194;2023-02-28T09:32:14;101309.75;;;11.33;35.56
49397;BME280;35615;41.410;2.194;2023-02-28T09:34:47;101317.03;;;11.22;35.65
49397;BME280;35615;41.410;2.194;2023-02-28T09:37:28;101313.28;;;11.16;35.13
49397;BME280;35615;41.410;2.194;2023-02-28T09:40:00;101309.81;;;11.34;34.99
49397;BME280;35615;41.410;2.194;2023-02-28T09:42:35;101314.38;;;11.21;35.33
49397;BME280;35615;41.410;2.194;2023-02-28T09:45:30;101314.50;;;11.24;34.77
49397;BME280;35615;41.410;2.194;2023-02-28T09:48:21;101315.97;;;11.19;34.73
49397;BME280;35615;41.410;2.194;2023-02-28T09:54:41;101325.03;;;11.48;34.95
49397;BME280;35615;41.410;2.194;2023-02-28T09:57:38;101304.63;;;11.54;34.50
49397;BME280;35615;41.410;2.194;2023-02-28T10:00:48;101301.63;;;11.45;34.09
49397;BME280;35615;41.410;2.194;2023-02-28T10:03:39;101307.38;;;11.58;34.88
49397;BME280;35615;41.410;2.194;2023-02-28T10:06:50;101316.16;;;11.62;34.10
49397;BME280;35615;41.410;2.194;2023-02-28T10:09:36;101322.50;;;12.09;34.41
49397;BME280;35615;41.410;2.194;2023-02-28T10:12:23;101324.94;;;12.27;34.18
49397;BME280;35615;41.410;2.194;2023-02-28T10:15:14;101344.44;;;12.39;33.42
49397;BME280;35615;41.410;2.194;2023-02-28T10:18:08;101351.31;;;12.39;32.96
49397;BME280;35615;41.410;2.194;2023-02-28T10:20:49;101366.84;;;12.60;32.85
49397;BME280;35615;41.410;2.194;2023-02-28T10:23:41;101376.41;;;12.61;33.58
49397;BME280;35615;41.410;2.194;2023-02-28T10:26:36;101376.41;;;12.61;32.06
49397;BME280;35615;41.410;2.194;2023-02-28T10:29:28;101368.09;;;12.69;31.85
49397;BME280;35615;41.410;2.194;2023-02-28T10:35:38;101360.59;;;12.98;31.97
49397;BME280;35615;41.410;2.194;2023-02-28T10:38:24;101379.41;;;13.38;30.69
49397;BME280;35615;41.410;2.194;2023-02-28T10:41:32;101376.16;;;13.68;30.58
49397;BME280;35615;41.410;2.194;2023-02-28T10:44:23;101361.50;;;14.19;30.59
49397;BME280;35615;41.410;2.194;2023-02-28T10:47:25;101362.66;;;14.29;29.03
49397;BME280;35615;41.410;2.194;2023-02-28T10:50:05;101360.88;;;14.80;29.23
49397;BME280;35615;41.410;2.194;2023-02-28T10:53:10;101346.59;;;15.26;28.08
49397;BME280;35615;41.410;2.194;2023-02-28T10:56:05;101351.53;;;15.77;28.16
49397;BME280;35615;41.410;2.194;2023-02-28T11:01:46;101362.31;;;16.25;27.49
49397;BME280;35615;41.410;2.194;2023-02-28T11:07:19;101368.00;;;16.09;27.70
49397;BME280;35615;41.410;2.194;2023-02-28T11:09:56;101370.84;;;16.18;27.46
49397;BME280;35615;41.410;2.194;2023-02-28T11:12:38;101372.91;;;16.32;27.28
49397;BME280;35615;41.410;2.194;2023-02-28T11:15:32;101374.66;;;16.33;27.12
49397;BME280;35615;41.410;2.194;2023-02-28T11:21:09;101363.03;;;16.92;26.52
49397;BME280;35615;41.410;2.194;2023-02-28T11:24:00;101376.56;;;17.13;26.17
49397;BME280;35615;41.410;2.194;2023-02-28T11:26:44;101373.59;;;16.97;25.78
49397;BME280;35615;41.410;2.194;2023-02-28T11:29:33;101378.84;;;16.62;26.43
49397;BME280;35615;41.410;2.194;2023-02-28T11:32:33;101383.63;;;16.44;26.38
49397;BME280;35615;41.410;2.194;2023-02-28T11:35:30;101378.09;;;16.30;26.20
49397;BME280;35615;41.410;2.194;2023-02-28T11:38:04;101389.47;;;16.34;27.72
49397;BME280;35615;41.410;2.194;2023-02-28T11:44:16;101387.47;;;15.90;27.09
49397;BME280;35615;41.410;2.194;2023-02-28T11:46:54;101392.88;;;15.65;27.69
49397;BME280;35615;41.410;2.194;2023-02-28T11:52:22;101396.84;;;14.95;28.11
49397;BME280;35615;41.410;2.194;2023-02-28T12:06:51;101367.75;;;15.37;27.44
49397;BME280;35615;41.410;2.194;2023-02-28T12:15:59;101352.56;;;15.52;27.52
49397;BME280;35615;41.410;2.194;2023-02-28T12:21:46;101354.97;;;15.46;27.99
49397;BME280;35615;41.410;2.194;2023-02-28T12:27:15;101344.03;;;15.89;27.50
49397;BME280;35615;41.410;2.194;2023-02-28T12:30:16;101349.47;;;16.33;27.20
49397;BME280;35615;41.410;2.194;2023-02-28T12:32:56;101343.53;;;16.40;27.21
49397;BME280;35615;41.410;2.194;2023-02-28T12:35:58;101339.44;;;16.50;26.99
49397;BME280;35615;41.410;2.194;2023-02-28T12:39:02;101339.50;;;16.89;26.62
49397;BME280;35615;41.410;2.194;2023-02-28T12:44:17;101331.50;;;17.67;26.63
49397;BME280;35615;41.410;2.194;2023-02-28T12:47:00;101320.16;;;18.17;25.83
49397;BME280;35615;41.410;2.194;2023-02-28T12:50:00;101321.66;;;18.55;25.26
49397;BME280;35615;41.410;2.194;2023-02-28T12:52:56;101318.53;;;18.81;24.02
49397;BME280;35615;41.410;2.194;2023-02-28T12:58:33;101316.56;;;19.31;24.33
49397;BME280;35615;41.410;2.194;2023-02-28T13:10:08;101315.78;;;20.31;24.11
49397;BME280;35615;41.410;2.194;2023-02-28T13:12:57;101308.28;;;20.89;23.09
49397;BME280;35615;41.410;2.194;2023-02-28T13:15:37;101308.53;;;21.49;22.86
49397;BME280;35615;41.410;2.194;2023-02-28T13:21:42;101292.84;;;22.19;21.00
49397;BME280;35615;41.410;2.194;2023-02-28T13:24:49;101293.56;;;22.97;21.03
49397;BME280;35615;41.410;2.194;2023-02-28T13:27:24;101297.75;;;23.32;20.85
49397;BME280;35615;41.410;2.194;2023-02-28T13:33:34;101295.78;;;23.70;20.38
49397;BME280;35615;41.410;2.194;2023-02-28T13:38:55;101297.72;;;23.41;20.40
49397;BME280;35615;41.410;2.194;2023-02-28T13:41:44;101295.63;;;23.92;20.48
49397;BME280;35615;41.410;2.194;2023-02-28T13:48:17;101296.38;;;24.04;19.16
49397;BME280;35615;41.410;2.194;2023-02-28T13:51:38;101303.47;;;24.01;19.25
49397;BME280;35615;41.410;2.194;2023-02-28T13:54:33;101304.31;;;24.92;19.10
49397;BME280;35615;41.410;2.194;2023-02-28T13:57:46;101296.69;;;24.66;18.45
49397;BME280;35615;41.410;2.194;2023-02-28T14:01:02;101302.63;;;24.86;18.27
49397;BME280;35615;41.410;2.194;2023-02-28T14:06:49;101309.94;;;25.37;18.06
49397;BME280;35615;41.410;2.194;2023-02-28T14:15:43;101312.34;;;26.11;17.32
49397;BME280;35615;41.410;2.194;2023-02-28T14:21:14;101308.63;;;25.65;17.96
49397;BME280;35615;41.410;2.194;2023-02-28T14:27:57;101329.47;;;24.47;18.58
49397;BME280;35615;41.410;2.194;2023-02-28T14:30:24;101316.66;;;24.91;18.36
49397;BME280;35615;41.410;2.194;2023-02-28T14:43:28;101309.72;;;25.52;18.37
49397;BME280;35615;41.410;2.194;2023-02-28T14:49:43;101318.06;;;24.43;18.55
49397;BME280;35615;41.410;2.194;2023-02-28T14:52:38;101323.38;;;24.39;19.83
49397;BME280;35615;41.410;2.194;2023-02-28T14:58:06;101333.09;;;22.79;19.56
49397;BME280;35615;41.410;2.194;2023-02-28T15:01:18;101339.34;;;22.18;20.21
49397;BME280;35615;41.410;2.194;2023-02-28T15:04:28;101341.88;;;21.62;20.15
49397;BME280;35615;41.410;2.194;2023-02-28T15:07:12;101352.34;;;21.43;21.35
49397;BME280;35615;41.410;2.194;2023-02-28T15:10:16;101351.13;;;20.83;21.32
49397;BME280;35615;41.410;2.194;2023-02-28T15:13:10;101354.63;;;20.73;21.21
49397;BME280;35615;41.410;2.194;2023-02-28T15:18:43;101353.63;;;20.57;21.36
49397;BME280;35615;41.410;2.194;2023-02-28T15:21:33;101351.88;;;20.59;21.57
49397;BME280;35615;41.410;2.194;2023-02-28T15:24:17;101355.84;;;20.10;21.34
49397;BME280;35615;41.410;2.194;2023-02-28T15:27:09;101347.22;;;20.25;21.96
49397;BME280;35615;41.410;2.194;2023-02-28T15:30:19;101346.53;;;20.43;21.56
49397;BME280;35615;41.410;2.194;2023-02-28T15:35:50;101351.06;;;20.70;22.30
49397;BME280;35615;41.410;2.194;2023-02-28T15:38:33;101355.63;;;21.00;21.54
49397;BME280;35615;41.410;2.194;2023-02-28T15:41:29;101361.69;;;19.82;21.99
49397;BME280;35615;41.410;2.194;2023-02-28T15:44:36;101363.38;;;20.78;21.48
49397;BME280;35615;41.410;2.194;2023-02-28T15:47:27;101355.56;;;20.86;22.29
49397;BME280;35615;41.410;2.194;2023-02-28T15:50:19;101356.38;;;20.79;21.72
49397;BME280;35615;41.410;2.194;2023-02-28T15:53:08;101359.81;;;20.72;21.83
49397;BME280;35615;41.410;2.194;2023-02-28T15:56:05;101360.69;;;20.69;22.19
49397;BME280;35615;41.410;2.194;2023-02-28T15:59:07;101362.44;;;20.70;22.05
49397;BME280;35615;41.410;2.194;2023-02-28T16:01:45;101363.16;;;20.46;21.99
49397;BME280;35615;41.410;2.194;2023-02-28T16:04:22;101364.91;;;20.49;22.12
49397;BME280;35615;41.410;2.194;2023-02-28T16:07:19;101372.13;;;19.76;22.38
49397;BME280;35615;41.410;2.194;2023-02-28T16:16:24;101374.88;;;19.88;22.25
49397;BME280;35615;41.410;2.194;2023-02-28T16:19:34;101381.09;;;19.99;22.54
49397;BME280;35615;41.410;2.194;2023-02-28T16:22:30;101383.72;;;19.26;22.56
49397;BME280;35615;41.410;2.194;2023-02-28T16:25:38;101381.13;;;19.26;22.93
49397;BME280;35615;41.410;2.194;2023-02-28T16:28:36;101387.38;;;19.39;22.82
49397;BME280;35615;41.410;2.194;2023-02-28T16:31:38;101386.28;;;19.19;23.12
49397;BME280;35615;41.410;2.194;2023-02-28T16:34:21;101389.63;;;19.08;22.99
49397;BME280;35615;41.410;2.194;2023-02-28T16:37:20;101384.13;;;18.90;23.08
49397;BME280;35615;41.410;2.194;2023-02-28T16:40:12;101384.53;;;18.62;23.49
49397;BME280;35615;41.410;2.194;2023-02-28T16:42:58;101392.84;;;18.89;23.35
49397;BME280;35615;41.410;2.194;2023-02-28T16:46:11;101389.16;;;18.75;23.72
49397;BME280;35615;41.410;2.194;2023-02-28T16:48:56;101397.41;;;18.48;23.69